sensor_id;sensor_type;location;lat;lon;timestamp;P1;durP1;ratioP1;P2;durP2;ratioP2
37877;SDS011;23715;53.652;8.516;2022-10-26T00:04:32;40.90;;;37.58;;
37877;SDS011;23715;53.652;8.516;2022-10-26T00:09:33;40.17;;;36.77;;
37877;SDS011;23715;53.652;8.516;2022-10-26T00:14:33;40.65;;;37.38;;
37877;SDS011;23715;53.652;8.516;2022-10-26T00:19:33;39.78;;;36.40;;
37877;SDS011;23715;53.652;8.516;2022-10-26T00:24:35;38.02;;;34.78;;
37877;SDS011;23715;53.652;8.516;2022-10-26T00:29:36;38.13;;;34.58;;
37877;SDS011;23715;53.652;8.516;2022-10-26T00:34:36;37.98;;;34.83;;
37877;SDS011;23715;53.652;8.516;2022-10-26T00:39:37;37.48;;;34.35;;
37877;SDS011;23715;53.652;8.516;2022-10-26T00:49:50;39.20;;;36.10;;
37877;SDS011;23715;53.652;8.516;2022-10-26T00:54:53;38.35;;;35.25;;
37877;SDS011;23715;53.652;8.516;2022-10-26T00:59:54;38.63;;;35.47;;
37877;SDS011;23715;53.652;8.516;2022-10-26T01:04:56;37.98;;;34.95;;
37877;SDS011;23715;53.652;8.516;2022-10-26T01:09:57;38.08;;;35.23;;
37877;SDS011;23715;53.652;8.516;2022-10-26T01:14:59;38.58;;;35.58;;
37877;SDS011;23715;53.652;8.516;2022-10-26T01:35:34;44.88;;;40.85;;
37877;SDS011;23715;53.652;8.516;2022-10-26T01:40:39;43.10;;;39.40;;
37877;SDS011;23715;53.652;8.516;2022-10-26T01:45:45;42.43;;;38.83;;
37877;SDS011;23715;53.652;8.516;2022-10-26T01:50:48;40.33;;;37.05;;
37877;SDS011;23715;53.652;8.516;2022-10-26T01:55:51;41.20;;;37.63;;
37877;SDS011;23715;53.652;8.516;2022-10-26T02:00:58;38.88;;;35.58;;
37877;SDS011;23715;53.652;8.516;2022-10-26T02:06:14;39.00;;;36.13;;
37877;SDS011;23715;53.652;8.516;2022-10-26T02:11:23;41.48;;;37.90;;
37877;SDS011;23715;53.652;8.516;2022-10-26T02:16:30;41.37;;;38.02;;
37877;SDS011;23715;53.652;8.516;2022-10-26T02:21:34;43.25;;;39.92;;
37877;SDS011;23715;53.652;8.516;2022-10-26T02:26:37;42.13;;;38.55;;
37877;SDS011;23715;53.652;8.516;2022-10-26T02:31:39;41.13;;;37.90;;
37877;SDS011;23715;53.652;8.516;2022-10-26T02:36:41;40.52;;;37.17;;
37877;SDS011;23715;53.652;8.516;2022-10-26T02:41:44;42.03;;;38.67;;
37877;SDS011;23715;53.652;8.516;2022-10-26T02:46:47;40.78;;;37.13;;
37877;SDS011;23715;53.652;8.516;2022-10-26T02:56:55;37.08;;;34.27;;
37877;SDS011;23715;53.652;8.516;2022-10-26T03:02:10;37.78;;;34.83;;
37877;SDS011;23715;53.652;8.516;2022-10-26T03:07:12;37.98;;;35.05;;
37877;SDS011;23715;53.652;8.516;2022-10-26T03:12:13;38.80;;;35.70;;
37877;SDS011;23715;53.652;8.516;2022-10-26T03:17:14;40.43;;;37.08;;
37877;SDS011;23715;53.652;8.516;2022-10-26T03:27:14;40.40;;;37.13;;
37877;SDS011;23715;53.652;8.516;2022-10-26T03:37:14;39.60;;;36.45;;
37877;SDS011;23715;53.652;8.516;2022-10-26T03:47:14;39.60;;;36.70;;
37877;SDS011;23715;53.652;8.516;2022-10-26T03:52:15;40.48;;;37.20;;
37877;SDS011;23715;53.652;8.516;2022-10-26T03:57:15;40.55;;;37.45;;
37877;SDS011;23715;53.652;8.516;2022-10-26T04:02:16;40.03;;;36.80;;
37877;SDS011;23715;53.652;8.516;2022-10-26T04:07:16;40.90;;;37.38;;
37877;SDS011;23715;53.652;8.516;2022-10-26T04:17:16;37.03;;;34.23;;
37877;SDS011;23715;53.652;8.516;2022-10-26T04:27:16;41.18;;;37.93;;
37877;SDS011;23715;53.652;8.516;2022-10-26T04:32:17;40.03;;;36.75;;
37877;SDS011;23715;53.652;8.516;2022-10-26T04:37:17;45.83;;;42.20;;
37877;SDS011;23715;53.652;8.516;2022-10-26T04:42:18;59.63;;;54.33;;
37877;SDS011;23715;53.652;8.516;2022-10-26T04:47:18;55.08;;;50.60;;
37877;SDS011;23715;53.652;8.516;2022-10-26T04:52:19;46.18;;;42.58;;
37877;SDS011;23715;53.652;8.516;2022-10-26T04:57:19;44.30;;;40.35;;
37877;SDS011;23715;53.652;8.516;2022-10-26T05:02:19;45.92;;;42.05;;
37877;SDS011;23715;53.652;8.516;2022-10-26T05:07:20;44.60;;;41.02;;
37877;SDS011;23715;53.652;8.516;2022-10-26T05:12:20;45.35;;;41.65;;
37877;SDS011;23715;53.652;8.516;2022-10-26T05:17:21;44.45;;;40.55;;
37877;SDS011;23715;53.652;8.516;2022-10-26T05:22:22;44.40;;;40.70;;
37877;SDS011;23715;53.652;8.516;2022-10-26T05:27:23;43.35;;;40.23;;
37877;SDS011;23715;53.652;8.516;2022-10-26T05:37:23;44.63;;;41.05;;
37877;SDS011;23715;53.652;8.516;2022-10-26T05:42:25;58.23;;;52.85;;
37877;SDS011;23715;53.652;8.516;2022-10-26T05:47:25;50.75;;;46.33;;
37877;SDS011;23715;53.652;8.516;2022-10-26T05:57:25;49.40;;;45.17;;
37877;SDS011;23715;53.652;8.516;2022-10-26T06:07:32;49.60;;;45.53;;
37877;SDS011;23715;53.652;8.516;2022-10-26T06:12:33;49.50;;;45.48;;
37877;SDS011;23715;53.652;8.516;2022-10-26T06:23:01;49.42;;;45.20;;
37877;SDS011;23715;53.652;8.516;2022-10-26T06:33:22;48.25;;;44.20;;
37877;SDS011;23715;53.652;8.516;2022-10-26T06:38:25;46.10;;;42.43;;
37877;SDS011;23715;53.652;8.516;2022-10-26T06:43:30;46.68;;;42.62;;
37877;SDS011;23715;53.652;8.516;2022-10-26T06:48:34;48.20;;;44.00;;
37877;SDS011;23715;53.652;8.516;2022-10-26T06:53:37;46.13;;;42.25;;
37877;SDS011;23715;53.652;8.516;2022-10-26T06:58:48;47.30;;;43.23;;
37877;SDS011;23715;53.652;8.516;2022-10-26T07:03:50;45.70;;;41.92;;
37877;SDS011;23715;53.652;8.516;2022-10-26T07:08:51;45.87;;;42.33;;
37877;SDS011;23715;53.652;8.516;2022-10-26T07:18:51;46.77;;;42.93;;
37877;SDS011;23715;53.652;8.516;2022-10-26T07:23:51;46.63;;;43.00;;
37877;SDS011;23715;53.652;8.516;2022-10-26T07:28:54;47.25;;;43.55;;
37877;SDS011;23715;53.652;8.516;2022-10-26T07:33:54;48.50;;;44.25;;
37877;SDS011;23715;53.652;8.516;2022-10-26T07:43:54;46.92;;;43.23;;
37877;SDS011;23715;53.652;8.516;2022-10-26T07:48:54;48.45;;;43.98;;
37877;SDS011;23715;53.652;8.516;2022-10-26T07:53:55;49.23;;;45.40;;
37877;SDS011;23715;53.652;8.516;2022-10-26T07:58:55;47.40;;;43.63;;
37877;SDS011;23715;53.652;8.516;2022-10-26T08:03:56;49.90;;;45.80;;
37877;SDS011;23715;53.652;8.516;2022-10-26T08:08:56;48.57;;;44.90;;
37877;SDS011;23715;53.652;8.516;2022-10-26T08:18:56;49.98;;;46.10;;
37877;SDS011;23715;53.652;8.516;2022-10-26T08:23:56;51.28;;;47.23;;
37877;SDS011;23715;53.652;8.516;2022-10-26T08:28:57;50.58;;;46.63;;
37877;SDS011;23715;53.652;8.516;2022-10-26T08:33:57;50.92;;;46.95;;
37877;SDS011;23715;53.652;8.516;2022-10-26T08:38:59;53.73;;;49.63;;
37877;SDS011;23715;53.652;8.516;2022-10-26T08:44:02;51.53;;;47.17;;
37877;SDS011;23715;53.652;8.516;2022-10-26T08:49:22;52.08;;;47.75;;
37877;SDS011;23715;53.652;8.516;2022-10-26T08:54:35;51.28;;;47.17;;
37877;SDS011;23715;53.652;8.516;2022-10-26T09:04:59;49.08;;;45.55;;
37877;SDS011;23715;53.652;8.516;2022-10-26T09:20:37;49.25;;;45.55;;
37877;SDS011;23715;53.652;8.516;2022-10-26T09:25:57;50.78;;;46.80;;
37877;SDS011;23715;53.652;8.516;2022-10-26T09:31:00;49.48;;;45.83;;
37877;SDS011;23715;53.652;8.516;2022-10-26T09:36:09;47.90;;;44.23;;
37877;SDS011;23715;53.652;8.516;2022-10-26T09:41:28;48.47;;;44.73;;
37877;SDS011;23715;53.652;8.516;2022-10-26T09:46:31;48.58;;;44.67;;
37877;SDS011;23715;53.652;8.516;2022-10-26T09:51:34;47.98;;;44.58;;
37877;SDS011;23715;53.652;8.516;2022-10-26T09:56:37;48.92;;;45.33;;
37877;SDS011;23715;53.652;8.516;2022-10-26T10:01:39;47.23;;;43.60;;
37877;SDS011;23715;53.652;8.516;2022-10-26T10:06:39;46.30;;;42.67;;
37877;SDS011;23715;53.652;8.516;2022-10-26T10:16:49;46.33;;;43.08;;
37877;SDS011;23715;53.652;8.516;2022-10-26T10:21:59;45.33;;;42.13;;
37877;SDS011;23715;53.652;8.516;2022-10-26T10:27:05;43.85;;;40.63;;
37877;SDS011;23715;53.652;8.516;2022-10-26T10:32:18;42.73;;;39.33;;
37877;SDS011;23715;53.652;8.516;2022-10-26T10:37:28;42.00;;;39.10;;
37877;SDS011;23715;53.652;8.516;2022-10-26T10:42:30;41.65;;;38.80;;
37877;SDS011;23715;53.652;8.516;2022-10-26T10:47:34;41.68;;;38.60;;
37877;SDS011;23715;53.652;8.516;2022-10-26T10:52:35;40.80;;;37.65;;
37877;SDS011;23715;53.652;8.516;2022-10-26T11:08:08;39.25;;;36.55;;
37877;SDS011;23715;53.652;8.516;2022-10-26T11:13:24;39.30;;;36.60;;
37877;SDS011;23715;53.652;8.516;2022-10-26T11:29:11;38.90;;;34.92;;
37877;SDS011;23715;53.652;8.516;2022-10-26T11:34:38;33.95;;;31.33;;
37877;SDS011;23715;53.652;8.516;2022-10-26T11:39:52;34.25;;;31.68;;
37877;SDS011;23715;53.652;8.516;2022-10-26T11:44:54;35.08;;;32.67;;
37877;SDS011;23715;53.652;8.516;2022-10-26T11:50:02;33.78;;;31.15;;
37877;SDS011;23715;53.652;8.516;2022-10-26T11:55:04;34.40;;;32.00;;
37877;SDS011;23715;53.652;8.516;2022-10-26T12:00:16;34.03;;;31.48;;
37877;SDS011;23715;53.652;8.516;2022-10-26T12:05:19;33.73;;;31.42;;
37877;SDS011;23715;53.652;8.516;2022-10-26T12:10:32;34.25;;;31.80;;
37877;SDS011;23715;53.652;8.516;2022-10-26T12:25:50;35.60;;;33.10;;
37877;SDS011;23715;53.652;8.516;2022-10-26T12:30:53;36.08;;;33.33;;
37877;SDS011;23715;53.652;8.516;2022-10-26T12:35:57;35.40;;;33.00;;
37877;SDS011;23715;53.652;8.516;2022-10-26T12:41:07;36.55;;;33.90;;
37877;SDS011;23715;53.652;8.516;2022-10-26T13:01:56;36.42;;;33.33;;
37877;SDS011;23715;53.652;8.516;2022-10-26T13:07:12;34.50;;;31.97;;
37877;SDS011;23715;53.652;8.516;2022-10-26T13:12:11;34.48;;;31.93;;
37877;SDS011;23715;53.652;8.516;2022-10-26T13:17:22;31.02;;;28.90;;
37877;SDS011;23715;53.652;8.516;2022-10-26T13:22:27;29.95;;;28.10;;
37877;SDS011;23715;53.652;8.516;2022-10-26T13:32:47;31.95;;;29.95;;
37877;SDS011;23715;53.652;8.516;2022-10-26T13:37:50;34.77;;;32.27;;
37877;SDS011;23715;53.652;8.516;2022-10-26T13:42:58;34.05;;;31.33;;
37877;SDS011;23715;53.652;8.516;2022-10-26T13:58:40;35.70;;;33.08;;
37877;SDS011;23715;53.652;8.516;2022-10-26T14:03:41;34.83;;;32.20;;
37877;SDS011;23715;53.652;8.516;2022-10-26T14:13:45;35.00;;;32.60;;
37877;SDS011;23715;53.652;8.516;2022-10-26T14:18:47;35.43;;;32.88;;
37877;SDS011;23715;53.652;8.516;2022-10-26T14:23:58;33.53;;;31.12;;
37877;SDS011;23715;53.652;8.516;2022-10-26T14:28:54;34.23;;;31.73;;
37877;SDS011;23715;53.652;8.516;2022-10-26T14:33:59;35.08;;;32.70;;
37877;SDS011;23715;53.652;8.516;2022-10-26T14:39:02;35.50;;;32.85;;
37877;SDS011;23715;53.652;8.516;2022-10-26T14:44:18;36.65;;;33.85;;
37877;SDS011;23715;53.652;8.516;2022-10-26T14:49:21;37.30;;;34.67;;
37877;SDS011;23715;53.652;8.516;2022-10-26T14:54:24;36.88;;;34.45;;
37877;SDS011;23715;53.652;8.516;2022-10-26T14:59:27;37.98;;;35.13;;
37877;SDS011;23715;53.652;8.516;2022-10-26T15:04:32;38.45;;;35.80;;
37877;SDS011;23715;53.652;8.516;2022-10-26T15:09:37;39.80;;;36.90;;
37877;SDS011;23715;53.652;8.516;2022-10-26T15:14:39;38.80;;;35.80;;
37877;SDS011;23715;53.652;8.516;2022-10-26T15:19:42;37.43;;;34.73;;
37877;SDS011;23715;53.652;8.516;2022-10-26T15:24:43;39.55;;;35.88;;
37877;SDS011;23715;53.652;8.516;2022-10-26T15:29:46;40.55;;;37.60;;
37877;SDS011;23715;53.652;8.516;2022-10-26T15:40:05;40.10;;;36.98;;
37877;SDS011;23715;53.652;8.516;2022-10-26T15:45:14;38.02;;;35.13;;
37877;SDS011;23715;53.652;8.516;2022-10-26T15:50:17;37.30;;;34.65;;
37877;SDS011;23715;53.652;8.516;2022-10-26T15:55:19;38.38;;;35.43;;
37877;SDS011;23715;53.652;8.516;2022-10-26T16:00:19;40.52;;;37.28;;
37877;SDS011;23715;53.652;8.516;2022-10-26T16:05:20;40.30;;;37.30;;
37877;SDS011;23715;53.652;8.516;2022-10-26T16:10:23;41.03;;;37.47;;
37877;SDS011;23715;53.652;8.516;2022-10-26T16:15:24;40.28;;;37.23;;
37877;SDS011;23715;53.652;8.516;2022-10-26T16:20:24;64.47;;;56.50;;
37877;SDS011;23715;53.652;8.516;2022-10-26T16:25:26;46.28;;;42.78;;
37877;SDS011;23715;53.652;8.516;2022-10-26T16:30:27;42.60;;;39.60;;
37877;SDS011;23715;53.652;8.516;2022-10-26T16:35:28;48.33;;;44.23;;
37877;SDS011;23715;53.652;8.516;2022-10-26T16:40:29;65.47;;;59.37;;
37877;SDS011;23715;53.652;8.516;2022-10-26T16:45:30;50.48;;;46.68;;
37877;SDS011;23715;53.652;8.516;2022-10-26T16:50:30;47.65;;;44.30;;
37877;SDS011;23715;53.652;8.516;2022-10-26T16:55:31;44.35;;;41.28;;
37877;SDS011;23715;53.652;8.516;2022-10-26T17:00:33;41.35;;;38.35;;
37877;SDS011;23715;53.652;8.516;2022-10-26T17:05:35;40.28;;;37.35;;
37877;SDS011;23715;53.652;8.516;2022-10-26T17:15:34;40.30;;;37.30;;
37877;SDS011;23715;53.652;8.516;2022-10-26T17:20:38;40.58;;;37.40;;
37877;SDS011;23715;53.652;8.516;2022-10-26T17:25:40;41.77;;;38.65;;
37877;SDS011;23715;53.652;8.516;2022-10-26T17:30:40;41.55;;;38.73;;
37877;SDS011;23715;53.652;8.516;2022-10-26T17:35:42;42.90;;;39.23;;
37877;SDS011;23715;53.652;8.516;2022-10-26T17:40:42;42.33;;;39.23;;
37877;SDS011;23715;53.652;8.516;2022-10-26T17:45:43;41.65;;;38.33;;
37877;SDS011;23715;53.652;8.516;2022-10-26T17:50:43;42.17;;;39.38;;
37877;SDS011;23715;53.652;8.516;2022-10-26T17:55:43;41.47;;;38.27;;
37877;SDS011;23715;53.652;8.516;2022-10-26T18:00:44;39.08;;;36.15;;
37877;SDS011;23715;53.652;8.516;2022-10-26T18:05:54;40.23;;;37.33;;
37877;SDS011;23715;53.652;8.516;2022-10-26T18:10:51;41.77;;;38.55;;
37877;SDS011;23715;53.652;8.516;2022-10-26T18:16:04;40.67;;;37.67;;
37877;SDS011;23715;53.652;8.516;2022-10-26T18:21:07;41.40;;;37.90;;
37877;SDS011;23715;53.652;8.516;2022-10-26T18:26:12;60.05;;;52.38;;
37877;SDS011;23715;53.652;8.516;2022-10-26T18:31:19;40.95;;;37.90;;
37877;SDS011;23715;53.652;8.516;2022-10-26T18:36:20;43.70;;;40.30;;
37877;SDS011;23715;53.652;8.516;2022-10-26T18:46:21;40.55;;;37.65;;
37877;SDS011;23715;53.652;8.516;2022-10-26T18:51:27;41.42;;;38.33;;
37877;SDS011;23715;53.652;8.516;2022-10-26T18:56:31;48.17;;;44.00;;
37877;SDS011;23715;53.652;8.516;2022-10-26T19:06:33;60.88;;;54.60;;
37877;SDS011;23715;53.652;8.516;2022-10-26T19:11:35;46.23;;;42.62;;
37877;SDS011;23715;53.652;8.516;2022-10-26T19:16:36;43.95;;;40.80;;
37877;SDS011;23715;53.652;8.516;2022-10-26T19:21:37;46.92;;;43.30;;
37877;SDS011;23715;53.652;8.516;2022-10-26T19:31:37;42.30;;;39.17;;
37877;SDS011;23715;53.652;8.516;2022-10-26T19:36:37;44.30;;;40.83;;
37877;SDS011;23715;53.652;8.516;2022-10-26T19:41:39;42.78;;;39.67;;
37877;SDS011;23715;53.652;8.516;2022-10-26T19:46:40;42.80;;;39.73;;
37877;SDS011;23715;53.652;8.516;2022-10-26T19:51:41;42.30;;;39.40;;
37877;SDS011;23715;53.652;8.516;2022-10-26T19:56:41;43.85;;;40.55;;
37877;SDS011;23715;53.652;8.516;2022-10-26T20:01:42;42.83;;;39.92;;
37877;SDS011;23715;53.652;8.516;2022-10-26T20:06:42;47.10;;;43.25;;
37877;SDS011;23715;53.652;8.516;2022-10-26T20:11:42;44.55;;;41.30;;
37877;SDS011;23715;53.652;8.516;2022-10-26T20:16:43;46.37;;;42.78;;
37877;SDS011;23715;53.652;8.516;2022-10-26T20:21:44;46.77;;;43.20;;
37877;SDS011;23715;53.652;8.516;2022-10-26T20:26:45;46.15;;;42.83;;
37877;SDS011;23715;53.652;8.516;2022-10-26T20:31:45;46.73;;;43.40;;
37877;SDS011;23715;53.652;8.516;2022-10-26T20:41:45;45.52;;;42.15;;
37877;SDS011;23715;53.652;8.516;2022-10-26T20:46:46;47.03;;;43.70;;
37877;SDS011;23715;53.652;8.516;2022-10-26T20:52:06;49.15;;;45.20;;
37877;SDS011;23715;53.652;8.516;2022-10-26T20:57:10;46.83;;;43.40;;
37877;SDS011;23715;53.652;8.516;2022-10-26T21:02:11;46.77;;;43.58;;
37877;SDS011;23715;53.652;8.516;2022-10-26T21:07:12;48.17;;;44.55;;
37877;SDS011;23715;53.652;8.516;2022-10-26T21:12:12;47.62;;;43.98;;
37877;SDS011;23715;53.652;8.516;2022-10-26T21:17:14;48.40;;;44.98;;
37877;SDS011;23715;53.652;8.516;2022-10-26T21:22:15;48.95;;;45.15;;
37877;SDS011;23715;53.652;8.516;2022-10-26T21:32:15;47.15;;;43.55;;
37877;SDS011;23715;53.652;8.516;2022-10-26T21:37:15;46.15;;;42.95;;
37877;SDS011;23715;53.652;8.516;2022-10-26T21:42:15;47.43;;;44.13;;
37877;SDS011;23715;53.652;8.516;2022-10-26T21:47:16;48.33;;;44.85;;
37877;SDS011;23715;53.652;8.516;2022-10-26T21:52:16;46.65;;;43.45;;
37877;SDS011;23715;53.652;8.516;2022-10-26T21:57:17;47.60;;;43.68;;
37877;SDS011;23715;53.652;8.516;2022-10-26T22:02:17;45.55;;;42.15;;
37877;SDS011;23715;53.652;8.516;2022-10-26T22:07:17;46.50;;;43.10;;
37877;SDS011;23715;53.652;8.516;2022-10-26T22:12:18;45.58;;;42.33;;
37877;SDS011;23715;53.652;8.516;2022-10-26T22:17:18;46.18;;;42.73;;
37877;SDS011;23715;53.652;8.516;2022-10-26T22:22:18;45.10;;;41.92;;
37877;SDS011;23715;53.652;8.516;2022-10-26T22:27:19;46.48;;;42.80;;
37877;SDS011;23715;53.652;8.516;2022-10-26T22:32:19;45.83;;;42.13;;
37877;SDS011;23715;53.652;8.516;2022-10-26T22:37:19;45.12;;;41.65;;
37877;SDS011;23715;53.652;8.516;2022-10-26T22:42:20;45.80;;;42.62;;
37877;SDS011;23715;53.652;8.516;2022-10-26T22:47:20;46.40;;;42.95;;
37877;SDS011;23715;53.652;8.516;2022-10-26T22:57:21;45.13;;;41.97;;
37877;SDS011;23715;53.652;8.516;2022-10-26T23:02:21;43.70;;;40.52;;
37877;SDS011;23715;53.652;8.516;2022-10-26T23:07:22;47.50;;;43.60;;
37877;SDS011;23715;53.652;8.516;2022-10-26T23:12:23;46.23;;;42.73;;
37877;SDS011;23715;53.652;8.516;2022-10-26T23:17:23;46.60;;;42.58;;
37877;SDS011;23715;53.652;8.516;2022-10-26T23:22:24;45.58;;;42.25;;
37877;SDS011;23715;53.652;8.516;2022-10-26T23:27:24;45.25;;;42.15;;
37877;SDS011;23715;53.652;8.516;2022-10-26T23:32:24;45.98;;;42.70;;
37877;SDS011;23715;53.652;8.516;2022-10-26T23:37:25;46.35;;;43.02;;
37877;SDS011;23715;53.652;8.516;2022-10-26T23:42:25;47.50;;;43.90;;
37877;SDS011;23715;53.652;8.516;2022-10-26T23:47:25;47.35;;;43.25;;
37877;SDS011;23715;53.652;8.516;2022-10-26T23:52:25;46.33;;;42.55;;
37877;SDS011;23715;53.652;8.516;2022-10-26T23:57:26;44.05;;;41.05;;
